Time;durP1;ratioP1;P1;durP2;ratioP2;P2;SDS_P1;SDS_P2;PMS_P1;PMS_P2;Temp;Humidity;BMP_temperature;BMP_pressure;BME280_temperature;BME280_humidity;BME280_pressure;Samples;Min_cycle;Max_cycle;Signal;HPM_P1;HPM_P2
2022/08/02 00:00:48;;;;;;;5.07;4.65;;;;;;;22.22;84.48;100061.42;465543;114;922589;-76
2022/08/02 00:01:51;;;;;;;5.39;4.76;;;;;;;22.25;84.49;100068.33;462878;114;922583;-76
2022/08/02 00:02:55;;;;;;;5.24;4.78;;;;;;;22.27;84.55;100066.91;457280;116;922588;-77
2022/08/02 00:03:58;;;;;;;5.49;4.91;;;;;;;22.29;84.48;100069.36;457273;116;922585;-77
2022/08/02 00:05:00;;;;;;;7.49;4.95;;;;;;;22.30;84.37;100060.73;457209;116;922858;-76
2022/08/02 00:06:04;;;;;;;5.42;4.96;;;;;;;22.31;84.28;100064.34;457241;116;923126;-76
2022/08/02 00:07:07;;;;;;;6.33;4.28;;;;;;;22.32;84.48;100069.59;457232;116;923105;-77
2022/08/02 00:08:10;;;;;;;5.29;4.58;;;;;;;22.34;84.54;100072.88;457279;116;922635;-76
2022/08/02 00:09:13;;;;;;;6.15;4.48;;;;;;;22.34;84.69;100072.88;457315;116;922574;-77
2022/08/02 00:10:17;;;;;;;4.49;4.19;;;;;;;22.36;84.66;100069.80;457118;116;922694;-76
2022/08/02 00:11:20;;;;;;;5.36;4.89;;;;;;;22.37;84.66;100063.13;457194;116;930569;-76
2022/08/02 00:12:24;;;;;;;5.15;4.66;;;;;;;22.36;84.85;100056.73;457280;116;922612;-76
2022/08/02 00:13:27;;;;;;;4.49;4.19;;;;;;;22.39;84.61;100046.95;457265;116;922536;-77
2022/08/02 00:14:30;;;;;;;5.05;4.66;;;;;;;22.39;84.61;100053.34;457220;116;922488;-77
2022/08/02 00:15:33;;;;;;;5.13;4.79;;;;;;;22.39;84.34;100058.89;465729;114;922869;-76
2022/08/02 00:16:36;;;;;;;5.60;4.62;;;;;;;22.38;84.13;100050.89;465960;114;922692;-77
2022/08/02 00:17:41;;;;;;;5.75;5.31;;;;;;;22.38;84.10;100043.34;465960;114;922470;-77
2022/08/02 00:18:44;;;;;;;5.26;4.28;;;;;;;22.37;83.99;100052.02;466148;114;922901;-76
2022/08/02 00:19:47;;;;;;;4.74;4.16;;;;;;;22.36;83.94;100050.36;466197;112;922917;-77
2022/08/02 00:20:50;;;;;;;4.23;3.84;;;;;;;22.35;83.96;100043.15;466361;114;922352;-76
2022/08/02 00:21:53;;;;;;;5.34;4.89;;;;;;;22.34;84.18;100042.32;466220;114;922740;-77
2022/08/02 00:22:56;;;;;;;4.71;4.26;;;;;;;22.36;84.24;100036.47;466239;114;922789;-77
2022/08/02 00:23:59;;;;;;;4.48;4.14;;;;;;;22.37;84.21;100040.90;466183;114;922509;-76
2022/08/02 00:25:05;;;;;;;4.76;4.24;;;;;;;22.36;84.06;100039.25;462699;114;922573;-77
2022/08/02 00:26:08;;;;;;;4.33;4.03;;;;;;;22.36;84.05;100033.69;466179;114;922450;-77
2022/08/02 00:27:12;;;;;;;5.84;3.84;;;;;;;22.36;84.00;100034.52;466329;114;922617;-77
2022/08/02 00:28:15;;;;;;;4.53;4.12;;;;;;;22.36;83.92;100036.47;466020;114;922508;-78
2022/08/02 00:29:18;;;;;;;4.58;4.17;;;;;;;22.37;83.85;100038.13;466031;114;922919;-77
2022/08/02 00:30:23;;;;;;;4.48;4.16;;;;;;;22.37;83.91;100041.73;464434;112;922992;-78
2022/08/02 00:31:26;;;;;;;4.79;4.21;;;;;;;22.37;84.07;100035.34;460125;115;922563;-77
2022/08/02 00:32:29;;;;;;;4.03;3.72;;;;;;;22.38;83.92;100037.00;460162;115;922593;-77
2022/08/02 00:33:32;;;;;;;4.27;3.87;;;;;;;22.38;83.46;100042.55;460162;115;923107;-77
2022/08/02 00:34:37;;;;;;;4.37;3.99;;;;;;;22.36;83.44;100040.08;454022;116;922422;-78
2022/08/02 00:35:41;;;;;;;4.02;3.69;;;;;;;22.36;83.61;100047.58;457165;116;923256;-77
2022/08/02 00:36:44;;;;;;;3.58;3.08;;;;;;;22.35;83.50;100043.15;457178;116;922575;-77
2022/08/02 00:37:47;;;;;;;4.29;3.97;;;;;;;22.34;83.13;100047.88;451996;117;923064;-78
2022/08/02 00:38:50;;;;;;;3.99;3.64;;;;;;;22.33;83.04;100056.50;451972;117;922419;-77
2022/08/02 00:39:53;;;;;;;3.74;3.43;;;;;;;22.31;82.79;100042.95;451960;117;922674;-77
2022/08/02 00:40:57;;;;;;;3.88;3.58;;;;;;;22.28;82.35;100043.54;451908;117;922964;-78
2022/08/02 00:42:00;;;;;;;3.60;3.30;;;;;;;22.26;82.36;100034.70;451831;117;930539;-78
2022/08/02 00:43:09;;;;;;;4.06;3.47;;;;;;;22.25;82.18;100046.11;451847;117;930560;-78
2022/08/02 00:44:12;;;;;;;3.68;3.38;;;;;;;22.23;82.24;100043.63;451804;117;922446;-78
2022/08/02 00:45:15;;;;;;;3.46;3.25;;;;;;;22.23;82.08;100040.03;451962;117;923076;-77
2022/08/02 00:46:21;;;;;;;3.98;3.66;;;;;;;22.22;82.24;100041.19;451778;117;922587;-78
2022/08/02 00:47:24;;;;;;;3.33;3.11;;;;;;;22.21;82.22;100040.36;451948;117;922527;-78
2022/08/02 00:48:28;;;;;;;3.49;3.19;;;;;;;22.20;82.17;100023.99;451970;117;923023;-77
2022/08/02 00:49:32;;;;;;;3.65;3.35;;;;;;;22.19;82.12;100033.45;451825;117;922820;-76
2022/08/02 00:50:37;;;;;;;3.53;3.16;;;;;;;22.18;81.88;100031.80;451888;117;922587;-78
2022/08/02 00:51:40;;;;;;;3.28;3.03;;;;;;;22.14;81.73;100034.36;451855;117;922464;-77
2022/08/02 00:52:43;;;;;;;3.49;3.19;;;;;;;22.14;81.75;100034.36;451885;117;922541;-76
2022/08/02 00:53:46;;;;;;;2.98;2.78;;;;;;;22.12;81.82;100042.16;451950;117;922578;-77
2022/08/02 00:54:49;;;;;;;3.29;3.04;;;;;;;22.13;81.92;100043.81;451881;117;923272;-78
2022/08/02 00:55:53;;;;;;;4.97;3.18;;;;;;;22.13;81.76;100045.77;454199;116;923326;-77
2022/08/02 00:56:56;;;;;;;3.61;3.41;;;;;;;22.13;81.54;100041.04;457463;115;922835;-77
2022/08/02 00:57:59;;;;;;;3.47;3.20;;;;;;;22.12;81.68;100041.34;456056;116;930542;-77
2022/08/02 00:59:04;;;;;;;3.66;3.16;;;;;;;22.13;81.50;100043.81;451771;117;922880;-77
2022/08/02 01:00:08;;;;;;;3.58;3.27;;;;;;;22.12;81.46;100044.11;451910;117;922547;-77
2022/08/02 01:01:11;;;;;;;3.71;3.44;;;;;;;22.12;81.37;100046.89;451879;117;922634;-77
2022/08/02 01:02:14;;;;;;;4.90;4.36;;;;;;;22.12;81.27;100039.39;451945;117;922637;-77
2022/08/02 01:03:18;;;;;;;6.59;3.24;;;;;;;22.10;81.02;100038.89;451850;117;922541;-77
2022/08/02 01:04:21;;;;;;;5.59;3.44;;;;;;;22.09;81.25;100048.34;451932;117;923068;-77
2022/08/02 01:05:26;;;;;;;5.70;3.46;;;;;;;22.09;81.34;100050.29;450801;117;923138;-78
2022/08/02 01:06:32;;;;;;;3.89;3.58;;;;;;;22.08;81.50;100054.19;451940;117;922489;-77
2022/08/02 01:07:35;;;;;;;3.61;3.38;;;;;;;22.09;81.74;100048.34;451713;117;922656;-77
2022/08/02 01:08:39;;;;;;;4.01;3.64;;;;;;;22.09;81.85;100048.34;451933;117;922621;-77
2022/08/02 01:09:43;;;;;;;3.92;3.63;;;;;;;22.11;81.97;100043.28;451831;117;923026;-77
2022/08/02 01:10:46;;;;;;;3.88;3.51;;;;;;;22.12;82.17;100038.56;451797;117;922968;-77
2022/08/02 01:11:50;;;;;;;4.16;3.86;;;;;;;22.11;82.08;100040.51;451832;117;923374;-76
2022/08/02 01:12:53;;;;;;;4.66;4.29;;;;;;;22.11;82.19;100051.61;451900;117;930524;-77
2022/08/02 01:14:00;;;;;;;4.00;3.68;;;;;;;22.13;82.32;100045.77;451939;117;922691;-78
2022/08/02 01:15:06;;;;;;;4.41;3.99;;;;;;;22.13;82.69;100042.98;455278;115;922539;-77
2022/08/02 01:16:13;;;;;;;4.95;4.56;;;;;;;22.15;82.82;100046.30;459633;115;922821;-78
2022/08/02 01:17:28;;;;;;;4.53;4.15;;;;;;;22.16;82.90;100053.51;459631;115;922728;-77
2022/08/02 01:18:41;;;;;;;4.85;4.45;;;;;;;22.17;82.92;100033.73;459637;115;922758;-77
2022/08/02 01:19:50;;;;;;;4.63;4.23;;;;;;;22.18;82.70;100042.90;459641;115;923007;-77
2022/08/02 01:21:12;;;;;;;4.69;4.29;;;;;;;22.19;82.79;100042.60;459551;115;922551;-77
2022/08/02 01:22:18;;;;;;;5.03;4.64;;;;;;;22.19;82.74;100039.83;459614;115;922949;-78
2022/08/02 01:23:34;;;;;;;4.89;4.49;;;;;;;22.20;83.04;100038.70;459629;115;922598;-77
2022/08/02 01:24:44;;;;;;;4.98;4.52;;;;;;;22.22;83.11;100041.19;459668;115;923207;-77
2022/08/02 01:26:25;;;;;;;4.77;4.43;;;;;;;22.22;83.29;100033.64;457338;115;922592;-77
2022/08/02 01:27:52;;;;;;;4.93;4.23;;;;;;;22.23;83.03;100028.92;459662;115;922569;-78
2022/08/02 01:29:01;;;;;;;4.50;4.20;;;;;;;22.23;82.93;100031.70;459613;115;922824;-77
2022/08/02 01:30:06;;;;;;;6.07;4.31;;;;;;;22.20;82.79;100021.22;457765;115;922728;-77
2022/08/02 01:31:24;;;;;;;4.43;4.13;;;;;;;22.18;82.56;100024.28;454720;116;922446;-77
2022/08/02 01:32:31;;;;;;;4.21;3.84;;;;;;;22.15;82.56;100022.13;454985;116;923072;-77
2022/08/02 01:33:37;;;;;;;6.91;4.34;;;;;;;22.13;82.71;100021.61;454935;116;922867;-77
2022/08/02 01:34:55;;;;;;;4.26;3.96;;;;;;;22.12;82.62;100016.34;443739;119;923084;-77
2022/08/02 01:36:02;;;;;;;10.47;4.47;;;;;;;22.11;82.60;100021.07;446114;117;922756;-77
2022/08/02 01:37:34;;;;;;;4.59;4.07;;;;;;;22.11;82.50;100025.83;451776;117;922563;-77
2022/08/02 01:38:40;;;;;;;4.94;4.48;;;;;;;22.10;82.55;100026.95;449471;118;923559;-77
2022/08/02 01:39:46;;;;;;;5.10;4.65;;;;;;;22.09;82.27;100028.08;449810;118;922554;-78
2022/08/02 01:40:51;;;;;;;4.71;4.36;;;;;;;22.05;82.09;100022.31;449813;118;922606;-77
2022/08/02 01:41:56;;;;;;;4.66;4.26;;;;;;;22.05;82.48;100016.77;449850;118;923046;-77
2022/08/02 01:43:02;;;;;;;3.97;3.66;;;;;;;22.07;82.62;100016.44;449787;118;922492;-77
2022/08/02 01:44:10;;;;;;;4.52;4.16;;;;;;;22.08;82.68;100030.03;449822;118;922934;-77
2022/08/02 01:45:15;;;;;;;4.89;4.28;;;;;;;22.09;82.77;100030.85;449825;118;923479;-77
2022/08/02 01:46:20;;;;;;;4.54;4.14;;;;;;;22.10;82.79;100036.11;449784;118;923140;-77
2022/08/02 01:47:29;;;;;;;5.46;4.63;;;;;;;22.10;82.43;100032.50;449789;118;922615;-77
2022/08/02 01:48:33;;;;;;;4.92;4.51;;;;;;;22.09;82.27;100047.52;449800;118;922966;-77
2022/08/02 01:49:38;;;;;;;4.84;4.54;;;;;;;22.06;81.71;100071.14;449900;118;922866;-77
2022/08/02 01:50:44;;;;;;;4.58;4.28;;;;;;;22.00;81.14;100086.23;449780;118;923190;-77
2022/08/02 01:53:14;;;;;;;4.89;4.50;;;;;;;21.88;80.64;100139.42;449751;118;922628;-77
2022/08/02 01:54:20;;;;;;;4.92;4.15;;;;;;;21.79;80.41;100157.86;449749;116;922660;-78
2022/08/02 01:55:27;;;;;;;4.51;4.18;;;;;;;21.71;80.59;100153.00;449767;118;923066;-79
2022/08/02 01:56:33;;;;;;;4.12;3.76;;;;;;;21.64;80.63;100160.86;451969;116;922592;-77
2022/08/02 01:57:40;;;;;;;4.84;3.85;;;;;;;21.59;80.36;100169.25;449783;118;923132;-76
2022/08/02 01:58:47;;;;;;;3.94;3.64;;;;;;;21.50;78.24;100163.52;449738;118;930517;-76
2022/08/02 01:59:52;;;;;;;8.37;4.13;;;;;;;21.41;78.89;100158.93;449816;118;922942;-76
2022/08/02 02:00:57;;;;;;;3.74;3.47;;;;;;;21.30;78.96;100154.63;449774;118;922995;-77
2022/08/02 02:02:01;;;;;;;3.82;3.51;;;;;;;21.18;78.74;100142.02;449844;118;922591;-76
2022/08/02 02:03:06;;;;;;;3.80;3.45;;;;;;;21.10;79.38;100139.88;449874;118;922652;-77
2022/08/02 02:04:11;;;;;;;5.22;3.65;;;;;;;21.04;80.12;100131.91;449759;118;922984;-75
2022/08/02 02:05:19;;;;;;;4.10;3.78;;;;;;;21.01;80.23;100135.25;449781;118;922986;-75
2022/08/02 02:06:23;;;;;;;4.27;3.45;;;;;;;20.99;80.65;100141.11;449697;118;930546;-77
2022/08/02 02:07:27;;;;;;;5.04;3.74;;;;;;;20.97;80.70;100143.34;449865;118;922881;-76
2022/08/02 02:08:37;;;;;;;4.45;3.43;;;;;;;20.94;80.99;100141.17;449783;118;923033;-76
2022/08/02 02:09:42;;;;;;;3.56;3.27;;;;;;;20.92;80.88;100143.40;449822;118;923037;-76
2022/08/02 02:10:46;;;;;;;5.82;3.17;;;;;;;20.87;79.96;100131.54;450459;116;922544;-75
2022/08/02 02:11:50;;;;;;;3.40;2.94;;;;;;;20.83;80.28;100141.56;449983;118;922612;-76
2022/08/02 02:12:57;;;;;;;4.01;2.96;;;;;;;20.75;80.41;100154.94;447073;118;922889;-76
2022/08/02 02:14:02;;;;;;;3.14;2.91;;;;;;;20.70;79.99;100140.30;449804;118;922569;-77
2022/08/02 02:15:09;;;;;;;3.49;3.21;;;;;;;20.61;79.72;100129.05;453568;116;923059;-77
2022/08/02 02:16:15;;;;;;;3.48;3.20;;;;;;;20.57;80.10;100132.66;457635;116;922624;-77
2022/08/02 02:17:21;;;;;;;4.33;2.83;;;;;;;20.54;80.79;100134.09;457657;116;922944;-77
2022/08/02 02:18:28;;;;;;;4.68;3.23;;;;;;;20.53;80.96;100148.22;454853;116;922613;-78
2022/08/02 02:19:34;;;;;;;3.49;3.17;;;;;;;20.52;81.20;100163.18;457595;116;922646;-76
2022/08/02 02:20:37;;;;;;;3.19;2.57;;;;;;;20.50;80.27;100182.05;457649;116;922544;-76
2022/08/02 02:21:41;;;;;;;3.02;2.72;;;;;;;20.46;80.48;100189.27;457762;116;922616;-76
2022/08/02 02:22:45;;;;;;;3.78;2.72;;;;;;;20.40;80.84;100189.31;457771;116;922616;-77
2022/08/02 02:23:50;;;;;;;3.44;2.83;;;;;;;20.36;81.24;100188.24;457401;116;922487;-76
2022/08/02 02:24:53;;;;;;;3.38;2.98;;;;;;;20.35;81.66;100188.52;457720;116;922607;-77
2022/08/02 02:25:58;;;;;;;3.74;2.87;;;;;;;20.36;81.97;100174.39;457716;114;923032;-77
2022/08/02 02:27:03;;;;;;;2.84;2.64;;;;;;;20.37;82.11;100173.29;457723;116;922467;-77
2022/08/02 02:28:12;;;;;;;3.85;2.82;;;;;;;20.38;81.78;100161.10;457571;116;923013;-77
2022/08/02 02:29:17;;;;;;;4.25;2.60;;;;;;;20.39;81.81;100162.76;457474;116;922564;-77
2022/08/02 02:30:23;;;;;;;3.63;2.49;;;;;;;20.39;81.74;100178.55;455824;116;922998;-77
2022/08/02 02:31:30;;;;;;;3.74;3.32;;;;;;;20.39;81.96;100184.91;449826;118;923072;-76
2022/08/02 02:32:34;;;;;;;2.47;2.23;;;;;;;20.38;81.35;100193.50;449870;118;923144;-77
2022/08/02 02:33:58;;;;;;;2.56;2.36;;;;;;;20.37;81.50;100197.38;450459;116;922707;-77
2022/08/02 02:35:04;;;;;;;2.86;2.66;;;;;;;20.33;81.36;100194.38;457588;116;924952;-77
2022/08/02 02:36:09;;;;;;;3.22;2.47;;;;;;;20.31;81.30;100171.67;457641;116;922622;-77
2022/08/02 02:37:20;;;;;;;3.24;2.37;;;;;;;20.28;81.02;100169.46;457628;116;922562;-77
2022/08/02 02:38:25;;;;;;;2.53;2.17;;;;;;;20.26;81.40;100157.84;457167;115;922640;-77
2022/08/02 02:39:30;;;;;;;2.47;2.27;;;;;;;20.26;82.03;100149.53;457061;116;922697;-77
2022/08/02 02:40:36;;;;;;;3.78;2.52;;;;;;;20.26;81.39;100138.45;457083;116;922651;-77
2022/08/02 02:41:41;;;;;;;2.64;2.43;;;;;;;20.27;81.65;100133.75;457059;116;922588;-77
2022/08/02 02:42:46;;;;;;;2.64;2.46;;;;;;;20.26;81.31;100146.77;457067;116;923468;-77
2022/08/02 02:43:54;;;;;;;2.41;2.24;;;;;;;20.27;81.23;100155.90;457032;116;922826;-77
2022/08/02 02:44:59;;;;;;;2.55;2.36;;;;;;;20.28;81.84;100168.63;457052;116;922560;-77
2022/08/02 02:46:05;;;;;;;3.64;1.93;;;;;;;20.29;81.96;100176.63;457015;116;922783;-77
2022/08/02 02:47:10;;;;;;;3.82;2.17;;;;;;;20.31;81.71;100184.66;457019;116;923068;-77
2022/08/02 02:48:14;;;;;;;2.72;2.46;;;;;;;20.32;82.13;100184.41;457033;116;922607;-77
2022/08/02 02:49:20;;;;;;;2.28;2.10;;;;;;;20.32;81.87;100178.87;457099;116;922549;-77
2022/08/02 02:50:24;;;;;;;2.22;1.98;;;;;;;20.32;80.96;100176.09;457066;116;922634;-77
2022/08/02 02:51:29;;;;;;;2.66;2.24;;;;;;;20.31;81.68;100165.27;457201;116;922587;-78
2022/08/02 02:52:33;;;;;;;2.16;1.93;;;;;;;20.32;81.72;100166.96;457202;116;922596;-77
2022/08/02 02:53:37;;;;;;;2.41;1.85;;;;;;;20.31;81.55;100157.83;457137;116;923016;-77
2022/08/02 02:54:44;;;;;;;2.49;2.29;;;;;;;20.32;81.74;100158.66;454141;116;930237;-77
2022/08/02 02:55:48;;;;;;;1.95;1.85;;;;;;;20.33;81.97;100165.85;459872;114;922623;-78
2022/08/02 02:56:54;;;;;;;1.94;1.78;;;;;;;20.33;81.84;100165.85;465539;114;922574;-77
2022/08/02 02:57:57;;;;;;;2.22;1.98;;;;;;;20.34;82.14;100178.59;465903;114;923193;-77
2022/08/02 02:59:01;;;;;;;2.56;1.85;;;;;;;20.34;81.54;100176.62;466032;114;923045;-77
2022/08/02 03:00:08;;;;;;;2.05;1.90;;;;;;;20.35;81.48;100181.05;465912;114;922563;-77
2022/08/02 03:01:27;;;;;;;1.90;1.80;;;;;;;20.36;81.67;100191.02;465717;114;930352;-78
2022/08/02 03:02:33;;;;;;;1.68;1.58;;;;;;;20.38;81.74;100177.72;465578;114;922652;-78
2022/08/02 03:03:37;;;;;;;1.79;1.69;;;;;;;20.39;81.04;100186.85;465860;114;923008;-78
2022/08/02 03:04:42;;;;;;;3.09;1.69;;;;;;;20.40;81.38;100191.25;465921;114;922590;-78
2022/08/02 03:05:47;;;;;;;1.68;1.58;;;;;;;20.42;81.53;100191.80;465550;114;922458;-78
2022/08/02 03:06:50;;;;;;;2.30;1.84;;;;;;;20.45;81.41;100190.41;465904;114;923016;-78
2022/08/02 03:07:53;;;;;;;2.08;1.95;;;;;;;20.46;80.94;100198.41;466037;114;923689;-77
2022/08/02 03:08:57;;;;;;;2.66;1.95;;;;;;;20.47;81.16;100202.00;466044;112;922691;-77
2022/08/02 03:10:01;;;;;;;1.80;1.69;;;;;;;20.48;80.97;100211.97;466007;114;922561;-77
2022/08/02 03:11:05;;;;;;;2.65;2.01;;;;;;;20.50;81.23;100206.98;465912;114;922598;-77
2022/08/02 03:12:09;;;;;;;4.19;2.94;;;;;;;20.53;81.11;100211.92;465774;114;930453;-76
2022/08/02 03:13:13;;;;;;;2.50;2.16;;;;;;;20.55;80.88;100218.02;465857;114;922963;-76
2022/08/02 03:14:17;;;;;;;3.81;2.04;;;;;;;20.58;80.17;100212.71;465933;114;922587;-76
2022/08/02 03:15:21;;;;;;;2.17;2.07;;;;;;;20.61;80.21;100197.47;459423;114;930492;-79
2022/08/02 03:16:27;;;;;;;2.51;2.31;;;;;;;20.63;80.00;100187.73;457178;116;922663;-78
2022/08/02 03:17:37;;;;;;;4.64;2.14;;;;;;;20.67;80.69;100180.52;457067;116;922620;-78
2022/08/02 03:18:43;;;;;;;2.43;2.29;;;;;;;20.71;80.26;100169.67;457034;116;922604;-78
2022/08/02 03:19:46;;;;;;;2.58;2.38;;;;;;;20.76;80.02;100177.92;457082;116;922964;-77
2022/08/02 03:20:50;;;;;;;2.49;2.21;;;;;;;20.78;79.00;100172.94;457314;116;922657;-79
2022/08/02 03:21:53;;;;;;;2.65;2.45;;;;;;;20.80;77.96;100177.05;457225;116;923281;-78
2022/08/02 03:22:58;;;;;;;4.61;2.57;;;;;;;20.83;77.75;100174.83;456630;116;923949;-79
2022/08/02 03:24:01;;;;;;;3.73;2.36;;;;;;;20.86;76.75;100188.91;457261;116;922975;-80
2022/08/02 03:25:05;;;;;;;2.75;2.54;;;;;;;20.88;76.93;100172.83;457273;116;922970;-77
2022/08/02 03:26:09;;;;;;;3.34;2.56;;;;;;;20.92;76.24;100184.14;457122;116;923842;-78
2022/08/02 03:27:12;;;;;;;4.70;2.71;;;;;;;20.96;77.60;100188.80;457249;116;922636;-79
2022/08/02 03:28:15;;;;;;;3.44;2.54;;;;;;;20.99;78.27;100204.86;457167;116;930572;-77
2022/08/02 03:29:18;;;;;;;5.09;2.71;;;;;;;21.04;78.58;100212.30;457277;116;922975;-78
2022/08/02 03:30:25;;;;;;;2.95;2.69;;;;;;;21.06;78.73;100221.95;463706;114;922527;-77
2022/08/02 03:31:27;;;;;;;5.95;3.45;;;;;;;21.09;78.94;100238.02;456953;116;922659;-78
2022/08/02 03:32:33;;;;;;;3.36;2.87;;;;;;;21.11;78.79;100248.83;456731;116;922530;-78
2022/08/02 03:33:38;;;;;;;3.13;2.83;;;;;;;21.14;78.81;100268.50;457046;116;922665;-78
2022/08/02 03:34:41;;;;;;;2.49;2.29;;;;;;;21.15;78.79;100270.16;457132;116;922533;-77
2022/08/02 03:35:46;;;;;;;2.31;2.12;;;;;;;21.17;78.96;100284.53;457288;116;922637;-78
2022/08/02 03:36:52;;;;;;;2.61;2.30;;;;;;;21.19;78.96;100296.17;457078;116;922972;-78
2022/08/02 03:37:56;;;;;;;1.98;1.82;;;;;;;21.21;78.83;100296.72;457078;116;923083;-78
2022/08/02 03:39:00;;;;;;;2.26;1.95;;;;;;;21.21;78.67;100307.81;452110;116;923562;-77
2022/08/02 03:40:06;;;;;;;2.04;1.85;;;;;;;21.21;78.35;100321.67;451911;117;923098;-77
2022/08/02 03:41:10;;;;;;;2.95;2.03;;;;;;;21.22;78.68;100330.83;451629;117;922794;-79
2022/08/02 03:42:14;;;;;;;2.10;1.90;;;;;;;21.23;79.05;100340.77;451937;117;922554;-78
2022/08/02 03:43:19;;;;;;;4.91;2.37;;;;;;;21.23;79.53;100351.86;451883;117;922758;-77
2022/08/02 03:44:24;;;;;;;14.42;3.01;;;;;;;21.23;79.92;100352.69;451826;117;922609;-77
2022/08/02 03:45:29;;;;;;;3.71;2.13;;;;;;;21.21;79.42;100368.81;451780;117;922803;-77
2022/08/02 03:46:38;;;;;;;2.52;1.54;;;;;;;21.15;79.73;100336.70;451783;116;922620;-75
2022/08/02 03:47:39;;;;;;;2.43;1.49;;;;;;;21.03;80.00;100308.48;451726;117;922569;-78
2022/08/02 03:48:43;;;;;;;2.89;1.76;;;;;;;20.89;80.02;100296.42;451848;116;922586;-76
2022/08/02 03:49:46;;;;;;;4.42;1.52;;;;;;;20.75;80.31;100307.33;451864;117;922492;-78
2022/08/02 03:50:50;;;;;;;5.69;1.68;;;;;;;20.60;80.67;100301.08;451950;117;922998;-76
2022/08/02 03:51:55;;;;;;;3.98;1.77;;;;;;;20.47;81.73;100319.16;451805;117;922968;-78
2022/08/02 03:52:59;;;;;;;2.41;1.44;;;;;;;20.32;82.36;100309.01;452034;117;922551;-78
2022/08/02 03:54:02;;;;;;;2.12;1.18;;;;;;;20.18;82.87;100304.36;451961;117;922477;-77
2022/08/02 03:55:06;;;;;;;2.29;1.36;;;;;;;20.05;83.36;100303.03;451805;117;930165;-77
2022/08/02 03:56:10;;;;;;;1.88;1.22;;;;;;;19.96;83.95;100301.95;457470;115;922488;-78
2022/08/02 03:57:13;;;;;;;2.33;1.18;;;;;;;19.88;84.27;100306.15;459868;115;922780;-75
2022/08/02 03:58:19;;;;;;;2.26;1.30;;;;;;;19.81;84.80;100300.08;459903;115;930296;-77
2022/08/02 03:59:22;;;;;;;2.46;1.12;;;;;;;19.78;85.10;100295.13;459573;115;922742;-77
2022/08/02 04:00:25;;;;;;;4.06;1.61;;;;;;;19.75;85.20;100281.02;459899;115;922464;-78
2022/08/02 04:01:28;;;;;;;2.67;0.98;;;;;;;19.71;85.31;100268.86;459919;115;922501;-78
2022/08/02 04:02:31;;;;;;;2.29;1.06;;;;;;;19.61;88.17;100271.67;459941;115;922564;-77
2022/08/02 04:03:34;;;;;;;2.43;1.52;;;;;;;19.56;86.29;100269.75;459794;115;922917;-78
2022/08/02 04:04:37;;;;;;;1.49;1.26;;;;;;;19.50;86.20;100266.18;459868;115;922467;-78
2022/08/02 04:05:41;;;;;;;3.98;0.90;;;;;;;19.46;86.27;100259.53;459904;115;923025;-77
2022/08/02 04:06:46;;;;;;;1.98;1.09;;;;;;;19.44;86.36;100250.67;456953;115;922734;-77
2022/08/02 04:07:49;;;;;;;1.47;0.90;;;;;;;19.43;86.54;100245.42;459843;115;922548;-78
2022/08/02 04:08:54;;;;;;;8.32;2.09;;;;;;;19.41;87.20;100247.63;456849;115;922620;-78
2022/08/02 04:09:57;;;;;;;3.07;1.44;;;;;;;19.36;89.68;100244.88;459763;115;922842;-78
2022/08/02 04:12:22;;;;;;;1.86;1.06;;;;;;;19.35;88.60;100240.48;459604;115;923208;-78
2022/08/02 04:13:28;;;;;;;2.09;0.97;;;;;;;19.33;88.54;100237.16;459797;115;922520;-78
2022/08/02 04:14:33;;;;;;;1.71;0.93;;;;;;;19.29;89.21;100241.60;459057;115;923016;-78
2022/08/02 04:15:39;;;;;;;2.26;1.02;;;;;;;19.25;89.35;100252.38;459649;115;923135;-77
2022/08/02 04:16:48;;;;;;;1.28;0.78;;;;;;;19.23;89.38;100249.08;459803;115;923597;-76
2022/08/02 04:17:56;;;;;;;1.41;0.80;;;;;;;19.21;88.73;100250.45;459704;115;922837;-79
2022/08/02 04:19:02;;;;;;;1.42;0.76;;;;;;;19.17;88.84;100244.66;459641;115;923029;-77
2022/08/02 04:20:09;;;;;;;0.97;0.86;;;;;;;19.14;89.07;100239.68;459661;115;922515;-77
2022/08/02 04:21:15;;;;;;;1.15;1.02;;;;;;;19.14;89.35;100228.62;459620;115;923084;-78
2022/08/02 04:22:22;;;;;;;1.49;1.17;;;;;;;19.08;92.01;100229.74;459695;115;922918;-77
2022/08/02 04:23:27;;;;;;;1.63;1.11;;;;;;;19.03;92.25;100218.70;459506;115;922684;-76
2022/08/02 04:24:38;;;;;;;2.39;1.24;;;;;;;19.01;92.13;100199.66;459557;115;922611;-78
2022/08/02 04:25:41;;;;;;;2.41;1.44;;;;;;;19.04;91.44;100203.78;459640;115;923091;-77
2022/08/02 04:26:45;;;;;;;2.80;1.31;;;;;;;19.05;92.48;100209.04;459846;115;922541;-78
2022/08/02 04:27:51;;;;;;;2.08;1.18;;;;;;;19.05;94.11;100214.56;459466;115;922588;-77
2022/08/02 04:28:57;;;;;;;2.29;1.26;;;;;;;19.08;94.15;100229.74;457040;115;922619;-78
2022/08/02 04:30:01;;;;;;;3.45;1.36;;;;;;;19.12;94.25;100231.69;457972;115;923443;-77
2022/08/02 04:31:05;;;;;;;3.41;1.39;;;;;;;19.22;94.51;100246.59;452101;116;923242;-77
2022/08/02 04:32:09;;;;;;;1.88;1.28;;;;;;;19.32;93.47;100247.39;451694;117;930786;-78
2022/08/02 04:33:13;;;;;;;2.14;1.11;;;;;;;19.43;93.67;100248.19;451884;117;923210;-78
2022/08/02 04:34:16;;;;;;;1.31;0.88;;;;;;;19.53;93.92;100246.24;451873;117;922891;-77
2022/08/02 04:35:19;;;;;;;2.81;1.27;;;;;;;19.65;94.09;100245.92;451855;117;930162;-78
2022/08/02 04:36:25;;;;;;;1.84;0.89;;;;;;;19.75;94.27;100245.88;451739;117;922577;-79
2022/08/02 04:37:30;;;;;;;1.50;0.99;;;;;;;19.86;94.38;100241.13;451047;117;923082;-77
2022/08/02 04:38:33;;;;;;;2.09;1.34;;;;;;;19.94;94.25;100246.91;452210;116;922857;-76
2022/08/02 04:39:36;;;;;;;1.29;1.00;;;;;;;20.02;94.16;100239.92;457316;115;922890;-77
2022/08/02 04:40:39;;;;;;;2.69;1.06;;;;;;;20.08;94.12;100244.33;457296;116;922880;-77
2022/08/02 04:41:44;;;;;;;2.37;1.04;;;;;;;20.16;94.00;100251.21;457292;116;923211;-77
2022/08/02 04:42:47;;;;;;;7.60;1.13;;;;;;;20.16;94.00;100251.21;457400;114;922551;-78
2022/08/02 04:43:51;;;;;;;1.29;0.79;;;;;;;20.18;93.82;100258.09;465323;114;922772;-78
2022/08/02 04:44:54;;;;;;;1.90;1.16;;;;;;;20.23;93.91;100257.27;465303;114;922655;-77
2022/08/02 04:45:57;;;;;;;1.77;0.89;;;;;;;20.27;93.73;100252.80;465439;114;923597;-78
2022/08/02 04:47:02;;;;;;;0.99;0.68;;;;;;;20.30;93.66;100266.06;465447;114;923093;-77
2022/08/02 04:48:07;;;;;;;0.99;0.79;;;;;;;20.33;93.58;100263.59;464812;114;922802;-76
2022/08/02 04:49:10;;;;;;;1.74;1.00;;;;;;;20.36;93.49;100262.18;465417;114;923062;-77
2022/08/02 04:50:15;;;;;;;1.96;1.03;;;;;;;20.39;93.53;100256.91;465247;114;922483;-77
2022/08/02 04:51:18;;;;;;;3.04;1.07;;;;;;;20.42;93.73;100227.80;465450;114;923031;-76
2022/08/02 04:52:21;;;;;;;1.01;0.79;;;;;;;20.45;93.84;100221.70;465455;114;923024;-77
2022/08/02 04:53:24;;;;;;;3.81;1.23;;;;;;;20.50;93.96;100226.37;465434;114;922743;-75
2022/08/02 04:56:49;;;;;;;1.91;1.07;;;;;;;20.56;93.94;100205.83;456601;116;922959;-78
2022/08/02 04:57:56;;;;;;;1.75;0.95;;;;;;;20.60;93.87;100181.96;457272;116;922577;-76
2022/08/02 04:59:00;;;;;;;0.82;0.82;;;;;;;20.59;93.65;100177.53;457098;116;923030;-76
2022/08/02 05:00:06;;;;;;;1.33;0.67;;;;;;;20.56;93.28;100178.95;457086;116;922526;-76
2022/08/02 05:01:10;;;;;;;2.86;0.98;;;;;;;20.54;93.26;100192.26;457101;116;923031;-78
2022/08/02 05:02:13;;;;;;;1.30;1.07;;;;;;;20.53;93.33;100190.59;457241;116;922519;-78
2022/08/02 05:03:17;;;;;;;1.51;0.84;;;;;;;20.55;93.44;100190.31;457270;116;922639;-77
2022/08/02 05:04:20;;;;;;;1.58;1.09;;;;;;;20.57;93.53;100190.83;457306;116;923218;-78
2022/08/02 05:05:23;;;;;;;1.06;0.89;;;;;;;20.60;93.70;100184.73;457275;116;922577;-76